Solana Beach, CA

7:03 PM PDT on October 31, 2014 (GMT -0700)
Solana Beach | Change Station
CLOSE
Current Station
Personal Weather Station
Location: Solana Beach, CA
Elevation: 198 ft
Nearby Weather Stations

Elev 198 ft 32.99 °N, 117.26 °W | Updated 9 seconds ago

Overcast
Overcast
65.6 °F
Feels Like 65.6 °F
N
0.0
Wind Variable Wind from East
Gusts 0.0 mph

Today
High -- | Low -- °F
--% Chance of Precip.
Yesterday
High -- | Low -- °F
Precip. -- in
7:06 AM 5:58 PM
First Quarter, 61% visible
Pressure 29.86 in
Visibility 10.0 miles
Clouds Scattered Clouds 5500 ft
Dew Point 61 °F
Humidity 84%
Rainfall 0.00 in
Snow Depth Not available.
UV 0 out of 12
Pollen 2.70 out of 12
Air Quality Not available.
Flu Activity Not available.
METAR KCRQ 010153Z AUTO 19004KT 10SM SCT055 19/14 A2986 RMK AO2 SLP110 T01940139

More Conditions Fewer Conditions

Pressure 29.86 in
Visibility 10.0 miles
Clouds Scattered Clouds 5500 ft
Dew Point 61 °F
Humidity 84%
Rainfall 0.00 in
Snow Depth Not available.
UV 0 out of 12
Pollen 2.70 out of 12
Air Quality Not available.
Flu Activity Not available.
METAR KCRQ 010153Z AUTO 19004KT 10SM SCT055 19/14 A2986 RMK AO2 SLP110 T01940139

More Conditions Fewer Conditions

10-Day Weather Forecast

Almanac

Astronomy

Oct. 31, 2014 Rise Set
Actual Time
Civil Twilight
Nautical Twilight
Astronomical Twilight
Moon
Length of Visible Light
Length of Day
Tomorrow will be .
, % of the Moon is Illuminated

Today's Extremes

State Highs State Lows

Community

WunderPhotos

Upload Photos

1,766,816 photos uploaded!

WunderBlogs® & News

Nearby

Air Quality

  Air Quality AQ Index Pollutant
Not available.

Snow Depth

Station Depth Elevation

Earthquake Activity

City Distance Mag. Time & Date
Minimum magnitude displayed is 2.5.

Coastal Water Temperatures

Place Temperature

Nearby Weather Stations